createdAt,value
2022-10-19T00:04:35.190Z,6.45
2022-10-19T00:07:01.840Z,6.20
2022-10-19T00:11:54.777Z,6.53
2022-10-19T00:14:22.602Z,6.47
2022-10-19T00:19:16.955Z,6.75
2022-10-19T00:21:43.653Z,6.72
2022-10-19T00:24:10.540Z,6.30
2022-10-19T00:33:56.009Z,7.13
2022-10-19T00:36:26.855Z,6.65
2022-10-19T00:38:53.848Z,7.30
2022-10-19T00:41:21.142Z,7.05
2022-10-19T00:43:52.763Z,7.35
2022-10-19T00:46:19.330Z,7.97
2022-10-19T00:51:11.494Z,7.95
2022-10-19T00:53:38.207Z,8.82
2022-10-19T00:56:07.887Z,9.30
2022-10-19T01:03:27.178Z,9.23
2022-10-19T01:05:53.926Z,9.32
2022-10-19T01:08:21.311Z,9.85
2022-10-19T01:11:09.067Z,9.15
2022-10-19T01:13:56.482Z,8.90
2022-10-19T01:16:41.867Z,7.85
2022-10-19T01:19:27.282Z,7.97
2022-10-19T01:27:20.781Z,8.48
2022-10-19T01:30:16.498Z,8.18
2022-10-19T01:32:55.140Z,8.38
2022-10-19T01:35:26.099Z,8.00
2022-10-19T01:40:34.388Z,7.95
2022-10-19T01:43:22.578Z,7.75
2022-10-19T01:45:59.682Z,8.18
2022-10-19T01:53:24.119Z,8.50
2022-10-19T01:55:51.979Z,7.90
2022-10-19T01:58:22.855Z,8.60
2022-10-19T02:03:17.276Z,8.60
2022-10-19T02:05:44.738Z,8.10
2022-10-19T02:08:13.677Z,8.00
2022-10-19T02:10:42.474Z,8.05
2022-10-19T02:13:09.787Z,8.10
2022-10-19T02:20:30.533Z,8.65
2022-10-19T02:22:57.146Z,8.52
2022-10-19T02:25:24.405Z,7.72
2022-10-19T02:27:52.410Z,8.50
2022-10-19T02:30:19.915Z,8.00
2022-10-19T02:32:46.604Z,8.77
2022-10-19T02:35:14.859Z,8.15
2022-10-19T02:37:41.764Z,8.90
2022-10-19T02:40:09.203Z,8.40
2022-10-19T02:42:40.974Z,9.50
2022-10-19T02:47:42.119Z,9.00
2022-10-19T02:50:09.529Z,11.07
2022-10-19T02:55:05.864Z,11.52
2022-10-19T02:57:32.798Z,10.40
2022-10-19T03:02:25.396Z,11.65
2022-10-19T03:04:52.032Z,11.98
2022-10-19T03:07:19.480Z,12.02
2022-10-19T03:09:46.163Z,12.05
2022-10-19T03:12:13.302Z,11.38
2022-10-19T03:17:05.829Z,12.48
2022-10-19T03:19:32.581Z,12.63
2022-10-19T03:21:59.197Z,12.15
2022-10-19T03:24:25.863Z,12.63
2022-10-19T03:26:52.473Z,12.45
2022-10-19T03:31:44.762Z,12.75
2022-10-19T03:34:11.392Z,12.90
2022-10-19T03:46:30.294Z,12.98
2022-10-19T03:48:56.995Z,12.68
2022-10-19T03:51:24.912Z,12.93
2022-10-19T04:01:18.739Z,14.00
2022-10-19T04:03:45.641Z,14.10
2022-10-19T04:06:19.762Z,12.15
2022-10-19T04:08:49.935Z,14.00
2022-10-19T04:11:17.425Z,13.75
2022-10-19T04:13:44.536Z,13.77
2022-10-19T04:16:13.602Z,13.95
2022-10-19T04:23:34.033Z,13.98
2022-10-19T04:26:05.888Z,14.23
2022-10-19T04:28:33.383Z,13.60
2022-10-19T04:50:32.865Z,13.07
2022-10-19T04:57:50.486Z,13.52
2022-10-19T05:00:17.226Z,14.43
2022-10-19T05:02:43.832Z,15.00
2022-10-19T05:05:10.579Z,14.13
2022-10-19T05:10:02.798Z,15.25
2022-10-19T05:12:29.438Z,14.75
2022-10-19T05:14:56.051Z,15.40
2022-10-19T05:17:22.641Z,14.38
2022-10-19T05:19:49.250Z,14.90
2022-10-19T05:22:15.816Z,13.70
2022-10-19T05:24:42.481Z,15.18
2022-10-19T05:27:09.110Z,14.80
2022-10-19T05:29:35.763Z,14.25
2022-10-19T05:32:02.460Z,15.18
2022-10-19T05:34:29.050Z,14.13
2022-10-19T05:36:56.540Z,14.25
2022-10-19T05:39:23.544Z,14.32
2022-10-19T05:41:50.184Z,14.52
2022-10-19T05:44:18.193Z,14.95
2022-10-19T05:49:11.622Z,15.02
2022-10-19T05:51:38.280Z,15.60
2022-10-19T05:56:31.281Z,15.00
2022-10-19T05:58:59.060Z,14.68
2022-10-19T06:03:52.224Z,14.52
2022-10-19T06:06:19.077Z,13.70
2022-10-19T06:08:45.973Z,14.38
2022-10-19T06:11:14.150Z,14.68
2022-10-19T06:13:41.521Z,14.63
2022-10-19T06:16:08.454Z,14.40
2022-10-19T06:38:09.159Z,13.77
2022-10-19T06:40:36.129Z,14.27
2022-10-19T06:43:02.749Z,14.43
2022-10-19T06:55:12.199Z,14.98
2022-10-19T06:57:38.876Z,14.38
2022-10-19T07:00:06.444Z,14.32
2022-10-19T07:02:33.527Z,14.38
2022-10-19T07:17:46.815Z,13.43
2022-10-19T07:20:13.502Z,13.95
2022-10-19T07:22:40.155Z,13.48
2022-10-19T07:32:23.203Z,14.48
2022-10-19T07:34:50.054Z,14.48
2022-10-19T07:37:16.644Z,14.90
2022-10-19T07:39:43.260Z,13.23
2022-10-19T07:42:09.963Z,15.27
2022-10-19T07:44:36.675Z,15.18
2022-10-19T07:47:04.718Z,13.75
2022-10-19T07:49:31.421Z,12.70
2022-10-19T07:51:59.104Z,11.43
2022-10-19T07:54:27.441Z,10.77
2022-10-19T07:56:54.158Z,10.57
2022-10-19T07:59:20.913Z,9.15
2022-10-19T08:01:48.955Z,8.63
2022-10-19T08:04:56.095Z,8.13
2022-10-19T08:07:03.178Z,8.82
2022-10-19T08:12:16.842Z,8.10
2022-10-19T08:14:43.486Z,6.45
2022-10-19T08:17:16.775Z,7.22
2022-10-19T08:19:44.371Z,6.72
2022-10-19T08:22:11.182Z,5.93
2022-10-19T08:24:37.923Z,6.43
2022-10-19T08:27:04.802Z,6.47
2022-10-19T08:29:31.876Z,6.88
2022-10-19T08:31:58.850Z,6.10
2022-10-19T08:34:25.568Z,6.03
2022-10-19T08:36:52.185Z,6.15
2022-10-19T08:41:53.352Z,5.95
2022-10-19T08:44:38.699Z,5.75
2022-10-19T08:47:22.345Z,6.07
2022-10-19T08:52:20.536Z,5.88
2022-10-19T09:02:56.781Z,4.90
2022-10-19T09:05:29.244Z,4.75
2022-10-19T09:07:55.981Z,4.53
2022-10-19T09:10:25.486Z,4.90
2022-10-19T09:12:58.844Z,4.47
2022-10-19T09:15:45.906Z,4.40
2022-10-19T09:18:32.756Z,4.72
2022-10-19T09:21:19.590Z,4.65
2022-10-19T09:26:33.003Z,4.35
2022-10-19T09:29:03.485Z,4.38
2022-10-19T09:31:34.942Z,4.57
2022-10-19T09:34:12.920Z,4.18
2022-10-19T09:36:50.644Z,4.28
2022-10-19T09:39:17.835Z,4.50
2022-10-19T09:41:46.568Z,4.28
2022-10-19T09:44:13.330Z,4.53
2022-10-19T09:49:16.772Z,3.58
2022-10-19T09:51:51.802Z,3.80
2022-10-19T09:57:19.992Z,3.47
2022-10-19T09:59:51.055Z,3.33
2022-10-19T10:02:19.755Z,3.65
2022-10-19T10:05:05.348Z,3.40
2022-10-19T10:07:38.731Z,4.32
2022-10-19T10:12:44.431Z,3.80
2022-10-19T10:15:16.203Z,3.78
2022-10-19T10:20:24.874Z,3.63
2022-10-19T10:27:53.354Z,3.80
2022-10-19T10:32:49.157Z,3.63
2022-10-19T10:35:32.925Z,3.67
2022-10-19T10:38:07.984Z,3.40
2022-10-19T10:40:34.693Z,3.38
2022-10-19T10:43:15.594Z,3.42
2022-10-19T10:53:35.193Z,3.25
2022-10-19T10:56:02.066Z,3.63
2022-10-19T10:58:37.607Z,2.92
2022-10-19T11:01:07.857Z,3.67
2022-10-19T11:03:36.152Z,3.28
2022-10-19T11:06:05.710Z,3.28
2022-10-19T11:11:24.072Z,4.05
2022-10-19T11:21:43.068Z,3.05
2022-10-19T11:31:45.919Z,3.55
2022-10-19T11:34:30.917Z,3.20
2022-10-19T11:39:46.153Z,3.10
2022-10-19T11:42:18.870Z,3.20
2022-10-19T11:44:57.397Z,3.20
2022-10-19T11:47:30.538Z,3.03
2022-10-19T11:52:51.555Z,3.05
2022-10-19T12:03:18.410Z,2.88
2022-10-19T12:06:08.197Z,3.03
2022-10-19T12:08:38.070Z,3.05
2022-10-19T12:11:10.683Z,3.35
2022-10-19T12:13:42.072Z,3.28
2022-10-19T12:16:10.451Z,3.00
2022-10-19T12:18:42.996Z,3.25
2022-10-19T12:21:27.414Z,2.85
2022-10-19T12:26:21.174Z,2.97
2022-10-19T12:28:50.628Z,3.15
2022-10-19T12:31:18.103Z,2.90
2022-10-19T12:33:46.545Z,2.67
2022-10-19T12:36:21.744Z,3.00
2022-10-19T12:39:00.569Z,2.90
2022-10-19T12:41:34.779Z,3.25
2022-10-19T12:44:33.981Z,3.10
2022-10-19T12:47:06.942Z,2.58
2022-10-19T12:49:33.582Z,2.97
2022-10-19T12:52:01.253Z,3.10
2022-10-19T12:56:55.177Z,2.67
2022-10-19T12:59:24.621Z,2.65
2022-10-19T13:01:51.833Z,3.05
2022-10-19T13:04:21.335Z,2.67
2022-10-19T13:06:58.573Z,2.28
2022-10-19T13:09:25.268Z,3.40
2022-10-19T13:12:10.688Z,2.72
2022-10-19T13:14:53.586Z,2.65
2022-10-19T13:17:38.198Z,2.72
2022-10-19T13:22:39.515Z,3.00
2022-10-19T13:30:44.240Z,2.88
2022-10-19T13:33:25.955Z,2.67
2022-10-19T13:38:33.727Z,2.78
2022-10-19T13:41:03.019Z,2.70
2022-10-19T13:43:31.886Z,2.85
2022-10-19T13:51:31.932Z,2.60
2022-10-19T13:54:17.412Z,2.72
2022-10-19T13:59:28.126Z,2.80
2022-10-19T14:04:44.133Z,2.78
2022-10-19T14:07:14.124Z,2.67
2022-10-19T14:12:38.113Z,2.40
2022-10-19T14:15:24.910Z,3.00
2022-10-19T14:20:25.882Z,2.60
2022-10-19T14:22:52.593Z,2.92
2022-10-19T14:25:20.825Z,2.65
2022-10-19T14:27:48.167Z,3.03
2022-10-19T14:30:28.782Z,3.30
2022-10-19T14:35:22.731Z,3.00
2022-10-19T14:37:49.711Z,2.72
2022-10-19T14:40:26.854Z,2.60
2022-10-19T14:42:55.396Z,2.90
2022-10-19T14:45:23.280Z,3.25
2022-10-19T14:48:01.835Z,2.85
2022-10-19T14:50:28.564Z,2.70
2022-10-19T14:53:04.115Z,3.45
2022-10-19T14:55:34.357Z,3.00
2022-10-19T14:58:01.476Z,2.83
2022-10-19T15:00:29.408Z,2.88
2022-10-19T15:03:06.741Z,2.67
2022-10-19T15:08:08.596Z,2.50
2022-10-19T15:10:43.310Z,3.03
2022-10-19T15:15:42.276Z,2.83
2022-10-19T15:18:30.284Z,2.55
2022-10-19T15:21:22.909Z,2.90
2022-10-19T15:23:51.360Z,3.05
2022-10-19T15:26:26.943Z,2.90
2022-10-19T15:28:54.722Z,2.60
2022-10-19T15:31:25.861Z,2.55
2022-10-19T15:36:23.518Z,2.30
2022-10-19T15:39:17.549Z,3.45
2022-10-19T15:41:49.665Z,3.17
2022-10-19T15:53:59.342Z,5.25
2022-10-19T15:56:27.134Z,3.90
2022-10-19T15:58:55.089Z,3.45
2022-10-19T16:01:23.425Z,3.70
2022-10-19T16:03:50.472Z,3.33
2022-10-19T16:06:17.808Z,3.33
2022-10-19T16:08:47.565Z,3.17
2022-10-19T16:11:15.527Z,3.08
2022-10-19T16:13:42.455Z,3.20
2022-10-19T16:16:11.666Z,2.80
2022-10-19T16:18:38.840Z,3.13
2022-10-19T16:21:05.571Z,2.80
2022-10-19T16:26:00.331Z,3.33
2022-10-19T16:28:27.026Z,3.40
2022-10-19T16:38:20.740Z,4.70
2022-10-19T16:40:47.622Z,4.70
2022-10-19T16:43:14.303Z,4.57
2022-10-19T16:45:44.937Z,3.92
2022-10-19T16:48:23.867Z,4.57
2022-10-19T16:53:39.421Z,3.58
2022-10-19T16:56:07.400Z,3.75
2022-10-19T16:58:35.012Z,3.55
2022-10-19T17:01:06.996Z,3.78
2022-10-19T17:03:33.947Z,3.15
2022-10-19T17:08:37.093Z,3.25
2022-10-19T17:11:21.130Z,3.65
2022-10-19T17:13:48.641Z,4.05
2022-10-19T17:16:15.849Z,3.45
2022-10-19T17:21:20.888Z,3.53
2022-10-19T17:28:41.523Z,3.45
2022-10-19T17:31:09.726Z,3.10
2022-10-19T17:33:36.428Z,3.83
2022-10-19T17:36:08.359Z,3.47
2022-10-19T17:41:01.756Z,3.50
2022-10-19T17:43:29.526Z,3.38
2022-10-19T17:48:25.378Z,3.88
2022-10-19T17:53:24.952Z,3.20
2022-10-19T17:55:52.363Z,3.40
2022-10-19T18:08:01.337Z,3.80
2022-10-19T18:10:28.059Z,3.70
2022-10-19T18:12:54.701Z,3.90
2022-10-19T18:17:47.166Z,3.70
2022-10-19T18:20:13.914Z,3.65
2022-10-19T18:25:07.546Z,3.83
2022-10-19T18:27:35.089Z,4.00
2022-10-19T18:32:27.294Z,4.28
2022-10-19T18:34:54.002Z,4.20
2022-10-19T18:37:20.678Z,4.00
2022-10-19T18:39:47.331Z,3.95
2022-10-19T18:42:13.918Z,4.07
2022-10-19T18:47:40.200Z,4.30
2022-10-19T18:50:06.958Z,4.15
2022-10-19T18:55:01.421Z,4.15
2022-10-19T18:57:31.639Z,3.60
2022-10-19T19:02:34.769Z,4.25
2022-10-19T19:05:09.194Z,4.00
2022-10-19T19:07:36.059Z,4.50
2022-10-19T19:10:06.464Z,4.65
2022-10-19T19:12:33.608Z,4.43
2022-10-19T19:15:00.705Z,4.65
2022-10-19T19:17:27.283Z,4.32
2022-10-19T19:27:10.658Z,4.45
2022-10-19T19:29:37.325Z,4.45
2022-10-19T19:32:04.614Z,3.83
2022-10-19T19:34:35.428Z,4.53
2022-10-19T19:37:03.294Z,4.95
2022-10-19T19:39:30.868Z,4.47
2022-10-19T19:49:21.007Z,4.50
2022-10-19T19:51:49.152Z,4.53
2022-10-19T19:54:15.775Z,4.70
2022-10-19T19:56:42.551Z,4.78
2022-10-19T19:59:10.043Z,4.20
2022-10-19T20:01:38.304Z,4.75
2022-10-19T20:04:07.005Z,4.70
2022-10-19T20:06:34.150Z,4.90
2022-10-19T20:09:00.840Z,4.93
2022-10-19T20:11:28.836Z,4.57
2022-10-19T20:13:56.500Z,4.28
2022-10-19T20:21:24.094Z,4.82
2022-10-19T20:23:51.151Z,4.43
2022-10-19T20:26:19.032Z,5.00
2022-10-19T20:28:46.271Z,4.88
2022-10-19T20:31:16.019Z,4.90
2022-10-19T20:38:38.670Z,5.32
2022-10-19T20:43:32.186Z,4.90
2022-10-19T20:46:02.577Z,4.68
2022-10-19T20:50:54.812Z,4.65
2022-10-19T20:53:21.454Z,4.85
2022-10-19T20:58:13.450Z,5.00
2022-10-19T21:00:40.155Z,4.85
2022-10-19T21:05:37.459Z,4.80
2022-10-19T21:08:04.523Z,4.65
2022-10-19T21:10:31.164Z,4.78
2022-10-19T21:12:58.059Z,5.00
2022-10-19T21:15:25.567Z,5.55
2022-10-19T21:17:52.146Z,5.25
2022-10-19T21:20:20.428Z,4.75
2022-10-19T21:22:47.120Z,5.40
2022-10-19T21:25:13.728Z,5.32
2022-10-19T21:27:40.332Z,4.72
2022-10-19T21:30:07.223Z,4.68
2022-10-19T21:32:33.884Z,4.68
2022-10-19T21:37:25.971Z,5.00
2022-10-19T21:39:52.614Z,5.15
2022-10-19T21:42:19.238Z,4.60
2022-10-19T21:44:45.919Z,5.70
2022-10-19T21:47:24.878Z,5.07
2022-10-19T21:49:51.517Z,5.70
2022-10-19T21:52:18.099Z,4.88
2022-10-19T21:57:10.279Z,5.63
2022-10-19T21:59:36.976Z,5.32
2022-10-19T22:02:03.865Z,5.00
2022-10-19T22:04:30.689Z,5.38
2022-10-19T22:06:59.606Z,5.15
2022-10-19T22:11:52.013Z,5.40
2022-10-19T22:14:18.626Z,6.05
2022-10-19T22:24:04.684Z,5.57
2022-10-19T22:26:33.045Z,5.85
2022-10-19T22:29:18.501Z,5.47
2022-10-19T22:31:45.195Z,6.25
2022-10-19T22:34:13.787Z,5.20
2022-10-19T22:36:40.530Z,5.95
2022-10-19T22:39:07.350Z,5.68
2022-10-19T22:41:33.982Z,6.00
2022-10-19T22:46:26.167Z,6.57
2022-10-19T22:48:52.815Z,5.45
2022-10-19T22:51:19.435Z,6.47
2022-10-19T22:56:11.851Z,6.65
2022-10-19T22:58:41.445Z,5.78
2022-10-19T23:03:35.570Z,5.47
2022-10-19T23:06:02.259Z,5.90
2022-10-19T23:18:11.589Z,5.78
2022-10-19T23:20:38.205Z,6.28
2022-10-19T23:30:21.166Z,5.95
2022-10-19T23:32:47.819Z,6.28
2022-10-19T23:35:14.462Z,6.05
2022-10-19T23:44:57.722Z,5.82
2022-10-19T23:47:24.391Z,5.93
2022-10-19T23:49:50.987Z,5.70
2022-10-19T23:54:43.084Z,5.60
2022-10-19T23:57:09.755Z,5.70
2022-10-19T23:59:36.377Z,6.15
